sensor_id;sensor_type;location;lat;lon;timestamp;P1;durP1;ratioP1;P2;durP2;ratioP2
73264;SDS011;61493;51.008;14.088;2023-04-25T00:00:17;5.15;;;2.67;;
73264;SDS011;61493;51.008;14.088;2023-04-25T00:02:42;4.53;;;2.92;;
73264;SDS011;61493;51.008;14.088;2023-04-25T00:05:07;2.88;;;2.10;;
73264;SDS011;61493;51.008;14.088;2023-04-25T00:07:33;7.40;;;2.97;;
73264;SDS011;61493;51.008;14.088;2023-04-25T00:09:58;5.60;;;2.88;;
73264;SDS011;61493;51.008;14.088;2023-04-25T00:12:24;7.75;;;2.85;;
73264;SDS011;61493;51.008;14.088;2023-04-25T00:14:49;8.13;;;2.85;;
73264;SDS011;61493;51.008;14.088;2023-04-25T00:17:17;6.18;;;3.28;;
73264;SDS011;61493;51.008;14.088;2023-04-25T00:19:44;4.85;;;2.90;;
73264;SDS011;61493;51.008;14.088;2023-04-25T00:22:11;3.15;;;2.08;;
73264;SDS011;61493;51.008;14.088;2023-04-25T00:24:36;4.90;;;2.50;;
73264;SDS011;61493;51.008;14.088;2023-04-25T00:27:02;6.14;;;3.08;;
73264;SDS011;61493;51.008;14.088;2023-04-25T00:29:27;7.80;;;3.65;;
73264;SDS011;61493;51.008;14.088;2023-04-25T00:31:52;5.43;;;2.88;;
73264;SDS011;61493;51.008;14.088;2023-04-25T00:34:17;6.82;;;3.22;;
73264;SDS011;61493;51.008;14.088;2023-04-25T00:36:42;5.75;;;3.28;;
73264;SDS011;61493;51.008;14.088;2023-04-25T00:39:07;7.28;;;2.76;;
73264;SDS011;61493;51.008;14.088;2023-04-25T00:41:33;3.78;;;2.60;;
73264;SDS011;61493;51.008;14.088;2023-04-25T00:43:58;6.07;;;2.85;;
73264;SDS011;61493;51.008;14.088;2023-04-25T00:46:24;6.10;;;2.83;;
73264;SDS011;61493;51.008;14.088;2023-04-25T00:48:49;5.22;;;3.00;;
73264;SDS011;61493;51.008;14.088;2023-04-25T00:51:15;4.80;;;2.85;;
73264;SDS011;61493;51.008;14.088;2023-04-25T00:53:41;6.70;;;3.25;;
73264;SDS011;61493;51.008;14.088;2023-04-25T00:56:06;4.55;;;2.58;;
73264;SDS011;61493;51.008;14.088;2023-04-25T00:58:31;6.47;;;3.25;;
73264;SDS011;61493;51.008;14.088;2023-04-25T01:00:57;4.55;;;2.78;;
73264;SDS011;61493;51.008;14.088;2023-04-25T01:03:22;5.22;;;3.17;;
73264;SDS011;61493;51.008;14.088;2023-04-25T01:05:47;5.43;;;2.83;;
73264;SDS011;61493;51.008;14.088;2023-04-25T01:08:13;5.05;;;3.08;;
73264;SDS011;61493;51.008;14.088;2023-04-25T01:10:38;5.50;;;3.22;;
73264;SDS011;61493;51.008;14.088;2023-04-25T01:13:03;6.30;;;2.84;;
73264;SDS011;61493;51.008;14.088;2023-04-25T01:15:29;6.20;;;2.90;;
73264;SDS011;61493;51.008;14.088;2023-04-25T01:17:54;5.93;;;3.40;;
73264;SDS011;61493;51.008;14.088;2023-04-25T01:20:23;6.07;;;2.90;;
73264;SDS011;61493;51.008;14.088;2023-04-25T01:22:48;6.50;;;3.22;;
73264;SDS011;61493;51.008;14.088;2023-04-25T01:25:14;5.55;;;3.08;;
73264;SDS011;61493;51.008;14.088;2023-04-25T01:27:40;5.20;;;3.08;;
73264;SDS011;61493;51.008;14.088;2023-04-25T01:30:05;7.55;;;3.10;;
73264;SDS011;61493;51.008;14.088;2023-04-25T01:32:30;8.48;;;3.63;;
73264;SDS011;61493;51.008;14.088;2023-04-25T01:35:03;8.40;;;3.67;;
73264;SDS011;61493;51.008;14.088;2023-04-25T01:37:28;5.65;;;3.40;;
73264;SDS011;61493;51.008;14.088;2023-04-25T01:39:53;6.85;;;3.50;;
73264;SDS011;61493;51.008;14.088;2023-04-25T01:42:18;7.38;;;3.80;;
73264;SDS011;61493;51.008;14.088;2023-04-25T01:44:44;7.38;;;3.75;;
73264;SDS011;61493;51.008;14.088;2023-04-25T01:47:09;7.70;;;3.78;;
73264;SDS011;61493;51.008;14.088;2023-04-25T01:49:34;6.82;;;3.80;;
73264;SDS011;61493;51.008;14.088;2023-04-25T01:51:59;10.80;;;4.20;;
73264;SDS011;61493;51.008;14.088;2023-04-25T01:54:24;7.68;;;4.47;;
73264;SDS011;61493;51.008;14.088;2023-04-25T01:56:50;6.93;;;3.75;;
73264;SDS011;61493;51.008;14.088;2023-04-25T01:59:16;7.45;;;4.47;;
73264;SDS011;61493;51.008;14.088;2023-04-25T02:01:41;8.48;;;4.28;;
73264;SDS011;61493;51.008;14.088;2023-04-25T02:04:06;7.64;;;4.44;;
73264;SDS011;61493;51.008;14.088;2023-04-25T02:06:31;8.94;;;4.74;;
73264;SDS011;61493;51.008;14.088;2023-04-25T02:08:57;7.65;;;4.20;;
73264;SDS011;61493;51.008;14.088;2023-04-25T02:11:22;6.90;;;4.10;;
73264;SDS011;61493;51.008;14.088;2023-04-25T02:13:47;8.23;;;4.57;;
73264;SDS011;61493;51.008;14.088;2023-04-25T02:16:12;8.90;;;4.75;;
73264;SDS011;61493;51.008;14.088;2023-04-25T02:18:38;7.13;;;4.30;;
73264;SDS011;61493;51.008;14.088;2023-04-25T02:21:04;6.90;;;3.83;;
73264;SDS011;61493;51.008;14.088;2023-04-25T02:23:29;10.30;;;4.93;;
73264;SDS011;61493;51.008;14.088;2023-04-25T02:25:55;8.77;;;4.53;;
73264;SDS011;61493;51.008;14.088;2023-04-25T02:28:20;9.93;;;4.35;;
73264;SDS011;61493;51.008;14.088;2023-04-25T02:30:46;10.34;;;4.54;;
73264;SDS011;61493;51.008;14.088;2023-04-25T02:33:11;7.98;;;4.40;;
73264;SDS011;61493;51.008;14.088;2023-04-25T02:35:36;7.78;;;4.25;;
73264;SDS011;61493;51.008;14.088;2023-04-25T02:38:01;10.13;;;5.03;;
73264;SDS011;61493;51.008;14.088;2023-04-25T02:40:26;7.54;;;3.90;;
73264;SDS011;61493;51.008;14.088;2023-04-25T02:42:51;12.02;;;5.63;;
73264;SDS011;61493;51.008;14.088;2023-04-25T02:45:17;10.36;;;4.34;;
73264;SDS011;61493;51.008;14.088;2023-04-25T02:47:42;10.27;;;5.38;;
73264;SDS011;61493;51.008;14.088;2023-04-25T02:50:07;7.16;;;4.70;;
73264;SDS011;61493;51.008;14.088;2023-04-25T02:52:32;7.45;;;4.00;;
73264;SDS011;61493;51.008;14.088;2023-04-25T02:54:57;10.57;;;4.28;;
73264;SDS011;61493;51.008;14.088;2023-04-25T02:57:23;8.25;;;4.50;;
73264;SDS011;61493;51.008;14.088;2023-04-25T02:59:48;9.57;;;4.72;;
73264;SDS011;61493;51.008;14.088;2023-04-25T03:02:13;9.73;;;5.47;;
73264;SDS011;61493;51.008;14.088;2023-04-25T03:04:38;7.78;;;4.30;;
73264;SDS011;61493;51.008;14.088;2023-04-25T03:07:03;7.90;;;4.50;;
73264;SDS011;61493;51.008;14.088;2023-04-25T03:09:29;11.05;;;5.18;;
73264;SDS011;61493;51.008;14.088;2023-04-25T03:11:54;9.60;;;5.28;;
73264;SDS011;61493;51.008;14.088;2023-04-25T03:14:19;9.63;;;4.45;;
73264;SDS011;61493;51.008;14.088;2023-04-25T03:16:45;11.10;;;4.65;;
73264;SDS011;61493;51.008;14.088;2023-04-25T03:19:10;9.55;;;5.05;;
73264;SDS011;61493;51.008;14.088;2023-04-25T03:21:35;9.17;;;4.70;;
73264;SDS011;61493;51.008;14.088;2023-04-25T03:24:01;11.82;;;4.45;;
73264;SDS011;61493;51.008;14.088;2023-04-25T03:26:27;9.68;;;4.60;;
73264;SDS011;61493;51.008;14.088;2023-04-25T03:28:52;9.17;;;5.30;;
73264;SDS011;61493;51.008;14.088;2023-04-25T03:31:17;12.13;;;5.15;;
73264;SDS011;61493;51.008;14.088;2023-04-25T03:33:43;8.65;;;5.03;;
73264;SDS011;61493;51.008;14.088;2023-04-25T03:36:08;11.93;;;5.70;;
73264;SDS011;61493;51.008;14.088;2023-04-25T03:38:33;7.97;;;4.80;;
73264;SDS011;61493;51.008;14.088;2023-04-25T03:40:58;9.63;;;5.03;;
73264;SDS011;61493;51.008;14.088;2023-04-25T03:43:24;12.63;;;5.97;;
73264;SDS011;61493;51.008;14.088;2023-04-25T03:45:49;13.30;;;6.28;;
73264;SDS011;61493;51.008;14.088;2023-04-25T03:48:14;12.87;;;5.60;;
73264;SDS011;61493;51.008;14.088;2023-04-25T03:50:39;9.20;;;5.17;;
73264;SDS011;61493;51.008;14.088;2023-04-25T03:53:04;8.80;;;4.67;;
73264;SDS011;61493;51.008;14.088;2023-04-25T03:55:30;10.17;;;4.73;;
73264;SDS011;61493;51.008;14.088;2023-04-25T03:57:55;12.50;;;6.63;;
73264;SDS011;61493;51.008;14.088;2023-04-25T04:00:22;11.00;;;5.43;;
73264;SDS011;61493;51.008;14.088;2023-04-25T04:02:48;14.24;;;6.00;;
73264;SDS011;61493;51.008;14.088;2023-04-25T04:05:13;9.93;;;5.65;;
73264;SDS011;61493;51.008;14.088;2023-04-25T04:07:38;11.57;;;5.73;;
73264;SDS011;61493;51.008;14.088;2023-04-25T04:10:11;10.45;;;5.40;;
73264;SDS011;61493;51.008;14.088;2023-04-25T04:12:37;8.35;;;4.97;;
73264;SDS011;61493;51.008;14.088;2023-04-25T04:15:02;9.75;;;5.10;;
73264;SDS011;61493;51.008;14.088;2023-04-25T04:17:28;9.85;;;4.97;;
73264;SDS011;61493;51.008;14.088;2023-04-25T04:19:54;9.73;;;5.27;;
73264;SDS011;61493;51.008;14.088;2023-04-25T04:22:19;10.48;;;4.85;;
73264;SDS011;61493;51.008;14.088;2023-04-25T04:24:45;8.50;;;4.95;;
73264;SDS011;61493;51.008;14.088;2023-04-25T04:30:22;9.35;;;4.47;;
73264;SDS011;61493;51.008;14.088;2023-04-25T04:32:49;20.70;;;10.93;;
73264;SDS011;61493;51.008;14.088;2023-04-25T04:35:14;17.52;;;10.85;;
73264;SDS011;61493;51.008;14.088;2023-04-25T04:37:39;11.00;;;6.50;;
73264;SDS011;61493;51.008;14.088;2023-04-25T04:40:05;10.88;;;7.88;;
73264;SDS011;61493;51.008;14.088;2023-04-25T04:42:30;12.63;;;9.48;;
73264;SDS011;61493;51.008;14.088;2023-04-25T04:44:56;10.68;;;7.65;;
73264;SDS011;61493;51.008;14.088;2023-04-25T04:47:23;9.23;;;5.82;;
73264;SDS011;61493;51.008;14.088;2023-04-25T04:49:48;10.27;;;6.05;;
73264;SDS011;61493;51.008;14.088;2023-04-25T04:52:14;9.85;;;6.28;;
73264;SDS011;61493;51.008;14.088;2023-04-25T04:54:39;9.94;;;6.50;;
73264;SDS011;61493;51.008;14.088;2023-04-25T04:57:04;9.82;;;5.90;;
73264;SDS011;61493;51.008;14.088;2023-04-25T04:59:29;10.65;;;6.05;;
73264;SDS011;61493;51.008;14.088;2023-04-25T05:01:55;9.02;;;5.13;;
73264;SDS011;61493;51.008;14.088;2023-04-25T05:04:20;8.24;;;4.74;;
73264;SDS011;61493;51.008;14.088;2023-04-25T05:06:45;8.45;;;5.20;;
73264;SDS011;61493;51.008;14.088;2023-04-25T05:09:10;8.98;;;4.98;;
73264;SDS011;61493;51.008;14.088;2023-04-25T05:11:35;11.77;;;5.35;;
73264;SDS011;61493;51.008;14.088;2023-04-25T05:14:00;9.26;;;4.96;;
73264;SDS011;61493;51.008;14.088;2023-04-25T05:16:26;9.02;;;5.42;;
73264;SDS011;61493;51.008;14.088;2023-04-25T05:18:51;10.05;;;5.28;;
73264;SDS011;61493;51.008;14.088;2023-04-25T05:21:16;6.63;;;4.35;;
73264;SDS011;61493;51.008;14.088;2023-04-25T05:23:41;6.93;;;4.10;;
73264;SDS011;61493;51.008;14.088;2023-04-25T05:26:06;7.68;;;3.65;;
73264;SDS011;61493;51.008;14.088;2023-04-25T05:28:38;5.72;;;3.63;;
73264;SDS011;61493;51.008;14.088;2023-04-25T05:31:03;6.55;;;3.67;;
73264;SDS011;61493;51.008;14.088;2023-04-25T05:33:28;6.35;;;3.50;;
73264;SDS011;61493;51.008;14.088;2023-04-25T05:35:53;7.25;;;3.75;;
73264;SDS011;61493;51.008;14.088;2023-04-25T05:38:19;6.82;;;3.83;;
73264;SDS011;61493;51.008;14.088;2023-04-25T05:40:44;7.18;;;3.70;;
73264;SDS011;61493;51.008;14.088;2023-04-25T05:43:09;6.35;;;3.72;;
73264;SDS011;61493;51.008;14.088;2023-04-25T05:45:34;4.43;;;2.80;;
73264;SDS011;61493;51.008;14.088;2023-04-25T05:48:00;5.45;;;3.10;;
73264;SDS011;61493;51.008;14.088;2023-04-25T05:50:25;5.35;;;3.40;;
73264;SDS011;61493;51.008;14.088;2023-04-25T05:52:50;5.53;;;3.13;;
73264;SDS011;61493;51.008;14.088;2023-04-25T05:55:15;6.40;;;3.43;;
73264;SDS011;61493;51.008;14.088;2023-04-25T05:57:41;6.25;;;2.83;;
73264;SDS011;61493;51.008;14.088;2023-04-25T06:00:08;5.25;;;3.13;;
73264;SDS011;61493;51.008;14.088;2023-04-25T06:02:34;4.18;;;3.20;;
73264;SDS011;61493;51.008;14.088;2023-04-25T06:04:59;7.35;;;3.22;;
73264;SDS011;61493;51.008;14.088;2023-04-25T06:07:24;5.22;;;3.13;;
73264;SDS011;61493;51.008;14.088;2023-04-25T06:09:50;5.40;;;2.88;;
73264;SDS011;61493;51.008;14.088;2023-04-25T06:12:15;7.15;;;3.42;;
73264;SDS011;61493;51.008;14.088;2023-04-25T06:14:41;5.32;;;3.35;;
73264;SDS011;61493;51.008;14.088;2023-04-25T06:17:06;5.40;;;2.37;;
73264;SDS011;61493;51.008;14.088;2023-04-25T06:19:33;5.25;;;2.85;;
73264;SDS011;61493;51.008;14.088;2023-04-25T06:21:58;4.45;;;3.05;;
73264;SDS011;61493;51.008;14.088;2023-04-25T06:24:23;5.40;;;3.10;;
73264;SDS011;61493;51.008;14.088;2023-04-25T06:26:48;5.10;;;2.97;;
73264;SDS011;61493;51.008;14.088;2023-04-25T06:29:14;4.88;;;3.03;;
73264;SDS011;61493;51.008;14.088;2023-04-25T06:31:39;4.57;;;2.60;;
73264;SDS011;61493;51.008;14.088;2023-04-25T06:34:05;3.78;;;2.85;;
73264;SDS011;61493;51.008;14.088;2023-04-25T06:36:30;5.20;;;3.15;;
73264;SDS011;61493;51.008;14.088;2023-04-25T06:38:55;4.50;;;2.70;;
73264;SDS011;61493;51.008;14.088;2023-04-25T06:41:20;6.60;;;3.50;;
73264;SDS011;61493;51.008;14.088;2023-04-25T06:43:45;5.03;;;2.97;;
73264;SDS011;61493;51.008;14.088;2023-04-25T06:46:11;7.60;;;3.03;;
73264;SDS011;61493;51.008;14.088;2023-04-25T06:48:36;4.47;;;2.90;;
73264;SDS011;61493;51.008;14.088;2023-04-25T06:51:01;8.18;;;3.17;;
73264;SDS011;61493;51.008;14.088;2023-04-25T06:53:27;6.30;;;3.20;;
73264;SDS011;61493;51.008;14.088;2023-04-25T06:55:52;7.40;;;3.45;;
73264;SDS011;61493;51.008;14.088;2023-04-25T06:58:17;9.67;;;3.27;;
73264;SDS011;61493;51.008;14.088;2023-04-25T07:00:43;6.47;;;3.47;;
73264;SDS011;61493;51.008;14.088;2023-04-25T07:03:08;5.80;;;3.07;;
73264;SDS011;61493;51.008;14.088;2023-04-25T07:05:34;5.05;;;2.90;;
73264;SDS011;61493;51.008;14.088;2023-04-25T07:07:59;7.40;;;4.25;;
73264;SDS011;61493;51.008;14.088;2023-04-25T07:10:25;7.03;;;4.13;;
73264;SDS011;61493;51.008;14.088;2023-04-25T07:12:50;6.32;;;4.03;;
73264;SDS011;61493;51.008;14.088;2023-04-25T07:15:15;5.67;;;3.17;;
73264;SDS011;61493;51.008;14.088;2023-04-25T07:17:41;7.73;;;3.43;;
73264;SDS011;61493;51.008;14.088;2023-04-25T07:20:06;5.37;;;2.97;;
73264;SDS011;61493;51.008;14.088;2023-04-25T07:22:32;6.13;;;3.25;;
73264;SDS011;61493;51.008;14.088;2023-04-25T07:24:57;4.13;;;3.10;;
73264;SDS011;61493;51.008;14.088;2023-04-25T07:27:22;6.80;;;3.07;;
73264;SDS011;61493;51.008;14.088;2023-04-25T07:29:48;5.90;;;3.22;;
73264;SDS011;61493;51.008;14.088;2023-04-25T07:32:13;4.63;;;3.40;;
73264;SDS011;61493;51.008;14.088;2023-04-25T07:34:38;4.90;;;2.78;;
73264;SDS011;61493;51.008;14.088;2023-04-25T07:37:04;5.63;;;3.80;;
73264;SDS011;61493;51.008;14.088;2023-04-25T07:39:29;6.85;;;3.42;;
73264;SDS011;61493;51.008;14.088;2023-04-25T07:41:55;6.22;;;3.15;;
73264;SDS011;61493;51.008;14.088;2023-04-25T07:44:21;5.88;;;2.95;;
73264;SDS011;61493;51.008;14.088;2023-04-25T07:46:46;3.28;;;2.45;;
73264;SDS011;61493;51.008;14.088;2023-04-25T07:49:11;4.90;;;3.33;;
73264;SDS011;61493;51.008;14.088;2023-04-25T07:51:37;6.05;;;3.15;;
73264;SDS011;61493;51.008;14.088;2023-04-25T07:54:02;6.13;;;2.90;;
73264;SDS011;61493;51.008;14.088;2023-04-25T07:56:27;6.13;;;2.83;;
73264;SDS011;61493;51.008;14.088;2023-04-25T07:58:52;5.72;;;3.10;;
73264;SDS011;61493;51.008;14.088;2023-04-25T08:01:18;4.83;;;2.40;;
73264;SDS011;61493;51.008;14.088;2023-04-25T08:03:45;5.05;;;3.00;;
73264;SDS011;61493;51.008;14.088;2023-04-25T08:06:10;5.97;;;3.00;;
73264;SDS011;61493;51.008;14.088;2023-04-25T08:08:36;6.43;;;2.80;;
73264;SDS011;61493;51.008;14.088;2023-04-25T08:11:01;4.97;;;2.63;;
73264;SDS011;61493;51.008;14.088;2023-04-25T08:13:26;5.00;;;2.57;;
73264;SDS011;61493;51.008;14.088;2023-04-25T08:15:51;4.72;;;2.70;;
73264;SDS011;61493;51.008;14.088;2023-04-25T08:18:16;5.07;;;2.65;;
73264;SDS011;61493;51.008;14.088;2023-04-25T08:20:41;4.40;;;2.60;;
73264;SDS011;61493;51.008;14.088;2023-04-25T08:23:06;6.60;;;2.70;;
73264;SDS011;61493;51.008;14.088;2023-04-25T08:25:32;5.45;;;2.95;;
73264;SDS011;61493;51.008;14.088;2023-04-25T08:27:57;5.60;;;3.20;;
73264;SDS011;61493;51.008;14.088;2023-04-25T08:30:24;5.50;;;2.50;;
73264;SDS011;61493;51.008;14.088;2023-04-25T08:32:49;5.25;;;2.92;;
73264;SDS011;61493;51.008;14.088;2023-04-25T08:35:14;3.80;;;2.47;;
73264;SDS011;61493;51.008;14.088;2023-04-25T08:37:41;5.20;;;3.22;;
73264;SDS011;61493;51.008;14.088;2023-04-25T08:40:06;3.47;;;2.17;;
73264;SDS011;61493;51.008;14.088;2023-04-25T08:42:34;4.50;;;2.63;;
73264;SDS011;61493;51.008;14.088;2023-04-25T08:45:01;5.32;;;2.50;;
73264;SDS011;61493;51.008;14.088;2023-04-25T08:47:28;3.88;;;2.53;;
73264;SDS011;61493;51.008;14.088;2023-04-25T08:49:54;4.95;;;2.80;;
73264;SDS011;61493;51.008;14.088;2023-04-25T08:52:23;6.00;;;2.40;;
73264;SDS011;61493;51.008;14.088;2023-04-25T08:54:49;1.95;;;1.48;;
73264;SDS011;61493;51.008;14.088;2023-04-25T08:57:14;3.07;;;1.80;;
73264;SDS011;61493;51.008;14.088;2023-04-25T08:59:40;3.60;;;1.77;;
73264;SDS011;61493;51.008;14.088;2023-04-25T09:02:09;3.72;;;1.45;;
73264;SDS011;61493;51.008;14.088;2023-04-25T09:04:36;2.88;;;1.30;;
73264;SDS011;61493;51.008;14.088;2023-04-25T09:07:02;2.57;;;1.40;;
73264;SDS011;61493;51.008;14.088;2023-04-25T09:09:27;3.58;;;1.92;;
73264;SDS011;61493;51.008;14.088;2023-04-25T09:11:52;4.37;;;1.70;;
73264;SDS011;61493;51.008;14.088;2023-04-25T09:14:19;4.05;;;2.13;;
73264;SDS011;61493;51.008;14.088;2023-04-25T09:16:57;5.75;;;2.22;;
73264;SDS011;61493;51.008;14.088;2023-04-25T09:19:24;4.15;;;2.08;;
73264;SDS011;61493;51.008;14.088;2023-04-25T09:21:50;2.13;;;1.50;;
73264;SDS011;61493;51.008;14.088;2023-04-25T09:24:15;3.38;;;1.73;;
73264;SDS011;61493;51.008;14.088;2023-04-25T09:26:41;2.25;;;1.77;;
73264;SDS011;61493;51.008;14.088;2023-04-25T09:29:06;2.55;;;1.77;;
73264;SDS011;61493;51.008;14.088;2023-04-25T09:31:35;3.08;;;2.00;;
73264;SDS011;61493;51.008;14.088;2023-04-25T09:34:01;5.18;;;1.73;;
73264;SDS011;61493;51.008;14.088;2023-04-25T09:36:27;4.15;;;2.05;;
73264;SDS011;61493;51.008;14.088;2023-04-25T09:38:52;7.65;;;4.65;;
73264;SDS011;61493;51.008;14.088;2023-04-25T09:41:22;3.38;;;2.13;;
73264;SDS011;61493;51.008;14.088;2023-04-25T09:43:48;4.03;;;2.50;;
73264;SDS011;61493;51.008;14.088;2023-04-25T09:46:14;5.40;;;2.45;;
73264;SDS011;61493;51.008;14.088;2023-04-25T09:48:39;4.23;;;2.40;;
73264;SDS011;61493;51.008;14.088;2023-04-25T09:51:08;3.75;;;2.40;;
73264;SDS011;61493;51.008;14.088;2023-04-25T09:53:37;5.75;;;2.22;;
73264;SDS011;61493;51.008;14.088;2023-04-25T09:56:06;4.05;;;2.30;;
73264;SDS011;61493;51.008;14.088;2023-04-25T09:58:32;5.13;;;2.53;;
73264;SDS011;61493;51.008;14.088;2023-04-25T10:00:59;3.15;;;2.00;;
73264;SDS011;61493;51.008;14.088;2023-04-25T10:03:24;4.50;;;1.85;;
73264;SDS011;61493;51.008;14.088;2023-04-25T10:05:50;3.05;;;2.42;;
73264;SDS011;61493;51.008;14.088;2023-04-25T10:08:17;6.25;;;2.60;;
73264;SDS011;61493;51.008;14.088;2023-04-25T10:10:42;4.82;;;3.05;;
73264;SDS011;61493;51.008;14.088;2023-04-25T10:13:07;4.63;;;3.10;;
73264;SDS011;61493;51.008;14.088;2023-04-25T10:15:34;4.47;;;2.85;;
73264;SDS011;61493;51.008;14.088;2023-04-25T10:18:00;5.57;;;2.85;;
73264;SDS011;61493;51.008;14.088;2023-04-25T10:20:25;5.93;;;3.70;;
73264;SDS011;61493;51.008;14.088;2023-04-25T10:22:51;7.28;;;4.93;;
73264;SDS011;61493;51.008;14.088;2023-04-25T10:25:19;6.95;;;4.20;;
73264;SDS011;61493;51.008;14.088;2023-04-25T10:27:44;5.25;;;3.50;;
73264;SDS011;61493;51.008;14.088;2023-04-25T10:30:10;5.43;;;3.00;;
73264;SDS011;61493;51.008;14.088;2023-04-25T10:32:39;6.47;;;3.83;;
73264;SDS011;61493;51.008;14.088;2023-04-25T10:35:17;5.85;;;3.72;;
73264;SDS011;61493;51.008;14.088;2023-04-25T10:40:23;5.82;;;3.40;;
73264;SDS011;61493;51.008;14.088;2023-04-25T10:42:49;7.28;;;3.38;;
73264;SDS011;61493;51.008;14.088;2023-04-25T10:45:14;3.95;;;2.92;;
73264;SDS011;61493;51.008;14.088;2023-04-25T10:47:43;4.85;;;3.08;;
73264;SDS011;61493;51.008;14.088;2023-04-25T10:50:09;4.20;;;2.95;;
73264;SDS011;61493;51.008;14.088;2023-04-25T10:52:34;4.72;;;3.33;;
73264;SDS011;61493;51.008;14.088;2023-04-25T10:54:59;4.95;;;3.53;;
73264;SDS011;61493;51.008;14.088;2023-04-25T10:57:31;7.25;;;4.00;;
73264;SDS011;61493;51.008;14.088;2023-04-25T11:00:15;6.13;;;3.58;;
73264;SDS011;61493;51.008;14.088;2023-04-25T11:02:45;7.18;;;4.05;;
73264;SDS011;61493;51.008;14.088;2023-04-25T11:05:16;6.50;;;3.55;;
73264;SDS011;61493;51.008;14.088;2023-04-25T11:07:44;6.32;;;3.28;;
73264;SDS011;61493;51.008;14.088;2023-04-25T11:10:14;4.53;;;3.38;;
73264;SDS011;61493;51.008;14.088;2023-04-25T11:12:39;4.28;;;2.53;;
73264;SDS011;61493;51.008;14.088;2023-04-25T11:15:05;4.75;;;2.10;;
73264;SDS011;61493;51.008;14.088;2023-04-25T11:17:30;2.30;;;1.73;;
73264;SDS011;61493;51.008;14.088;2023-04-25T11:19:56;6.15;;;2.35;;
73264;SDS011;61493;51.008;14.088;2023-04-25T11:22:21;4.20;;;2.40;;
73264;SDS011;61493;51.008;14.088;2023-04-25T11:24:46;4.55;;;2.55;;
73264;SDS011;61493;51.008;14.088;2023-04-25T11:27:12;4.40;;;2.75;;
73264;SDS011;61493;51.008;14.088;2023-04-25T11:29:44;4.88;;;2.65;;
73264;SDS011;61493;51.008;14.088;2023-04-25T11:32:12;3.97;;;3.05;;
73264;SDS011;61493;51.008;14.088;2023-04-25T11:34:38;5.80;;;2.95;;
73264;SDS011;61493;51.008;14.088;2023-04-25T11:37:03;5.53;;;3.37;;
73264;SDS011;61493;51.008;14.088;2023-04-25T11:39:28;6.30;;;3.38;;
73264;SDS011;61493;51.008;14.088;2023-04-25T11:41:54;6.90;;;3.65;;
73264;SDS011;61493;51.008;14.088;2023-04-25T11:44:19;15.82;;;7.47;;
73264;SDS011;61493;51.008;14.088;2023-04-25T11:46:45;7.63;;;4.10;;
73264;SDS011;61493;51.008;14.088;2023-04-25T11:49:11;10.15;;;4.90;;
73264;SDS011;61493;51.008;14.088;2023-04-25T11:51:39;7.72;;;4.30;;
73264;SDS011;61493;51.008;14.088;2023-04-25T11:54:05;7.85;;;4.38;;
73264;SDS011;61493;51.008;14.088;2023-04-25T11:56:31;7.80;;;4.50;;
73264;SDS011;61493;51.008;14.088;2023-04-25T11:58:56;6.60;;;4.05;;
73264;SDS011;61493;51.008;14.088;2023-04-25T12:01:26;7.00;;;4.35;;
73264;SDS011;61493;51.008;14.088;2023-04-25T12:03:51;7.30;;;4.15;;
73264;SDS011;61493;51.008;14.088;2023-04-25T12:06:17;8.63;;;3.88;;
73264;SDS011;61493;51.008;14.088;2023-04-25T12:08:58;9.10;;;4.00;;
73264;SDS011;61493;51.008;14.088;2023-04-25T12:11:23;6.88;;;2.95;;
73264;SDS011;61493;51.008;14.088;2023-04-25T12:13:51;6.50;;;2.80;;
73264;SDS011;61493;51.008;14.088;2023-04-25T12:16:17;4.93;;;2.50;;
73264;SDS011;61493;51.008;14.088;2023-04-25T12:18:42;5.63;;;3.13;;
73264;SDS011;61493;51.008;14.088;2023-04-25T12:21:07;5.25;;;2.97;;
73264;SDS011;61493;51.008;14.088;2023-04-25T12:23:34;6.20;;;2.40;;
73264;SDS011;61493;51.008;14.088;2023-04-25T12:25:59;4.18;;;2.70;;
73264;SDS011;61493;51.008;14.088;2023-04-25T12:28:27;12.75;;;2.75;;
73264;SDS011;61493;51.008;14.088;2023-04-25T12:30:59;5.40;;;2.10;;
73264;SDS011;61493;51.008;14.088;2023-04-25T12:33:25;3.90;;;1.85;;
73264;SDS011;61493;51.008;14.088;2023-04-25T12:35:52;3.40;;;1.60;;
73264;SDS011;61493;51.008;14.088;2023-04-25T12:38:24;7.50;;;2.08;;
73264;SDS011;61493;51.008;14.088;2023-04-25T12:40:49;3.58;;;1.63;;
73264;SDS011;61493;51.008;14.088;2023-04-25T12:43:14;5.95;;;2.05;;
73264;SDS011;61493;51.008;14.088;2023-04-25T12:45:40;3.65;;;1.67;;
73264;SDS011;61493;51.008;14.088;2023-04-25T12:48:05;3.03;;;1.65;;
73264;SDS011;61493;51.008;14.088;2023-04-25T12:50:30;5.72;;;1.95;;
73264;SDS011;61493;51.008;14.088;2023-04-25T12:52:55;3.72;;;2.08;;
73264;SDS011;61493;51.008;14.088;2023-04-25T12:55:21;3.40;;;1.80;;
73264;SDS011;61493;51.008;14.088;2023-04-25T12:57:46;6.32;;;1.85;;
73264;SDS011;61493;51.008;14.088;2023-04-25T13:00:12;4.68;;;1.80;;
73264;SDS011;61493;51.008;14.088;2023-04-25T13:02:39;7.35;;;2.08;;
73264;SDS011;61493;51.008;14.088;2023-04-25T13:05:05;4.57;;;2.25;;
73264;SDS011;61493;51.008;14.088;2023-04-25T13:07:30;4.82;;;2.13;;
73264;SDS011;61493;51.008;14.088;2023-04-25T13:09:55;10.40;;;2.05;;
73264;SDS011;61493;51.008;14.088;2023-04-25T13:12:21;3.33;;;1.83;;
73264;SDS011;61493;51.008;14.088;2023-04-25T13:14:46;6.90;;;2.28;;
73264;SDS011;61493;51.008;14.088;2023-04-25T13:17:11;5.30;;;2.45;;
73264;SDS011;61493;51.008;14.088;2023-04-25T13:19:36;10.15;;;2.88;;
73264;SDS011;61493;51.008;14.088;2023-04-25T13:22:01;6.70;;;2.33;;
73264;SDS011;61493;51.008;14.088;2023-04-25T13:24:30;5.88;;;2.20;;
73264;SDS011;61493;51.008;14.088;2023-04-25T13:26:55;2.90;;;2.17;;
73264;SDS011;61493;51.008;14.088;2023-04-25T13:29:20;7.93;;;2.50;;
73264;SDS011;61493;51.008;14.088;2023-04-25T13:31:45;7.47;;;2.40;;
73264;SDS011;61493;51.008;14.088;2023-04-25T13:34:11;7.65;;;2.95;;
73264;SDS011;61493;51.008;14.088;2023-04-25T13:36:37;7.47;;;2.55;;
73264;SDS011;61493;51.008;14.088;2023-04-25T13:39:02;5.57;;;2.22;;
73264;SDS011;61493;51.008;14.088;2023-04-25T13:41:29;5.63;;;2.45;;
73264;SDS011;61493;51.008;14.088;2023-04-25T13:43:54;6.50;;;2.67;;
73264;SDS011;61493;51.008;14.088;2023-04-25T13:46:19;8.63;;;2.92;;
73264;SDS011;61493;51.008;14.088;2023-04-25T13:48:44;9.93;;;2.90;;
73264;SDS011;61493;51.008;14.088;2023-04-25T13:51:11;9.07;;;2.95;;
73264;SDS011;61493;51.008;14.088;2023-04-25T13:53:36;7.07;;;2.72;;
73264;SDS011;61493;51.008;14.088;2023-04-25T13:56:01;11.50;;;2.90;;
73264;SDS011;61493;51.008;14.088;2023-04-25T13:58:27;8.75;;;3.03;;
73264;SDS011;61493;51.008;14.088;2023-04-25T14:00:52;14.40;;;3.92;;
73264;SDS011;61493;51.008;14.088;2023-04-25T14:03:17;16.33;;;5.90;;
73264;SDS011;61493;51.008;14.088;2023-04-25T14:05:42;8.65;;;4.03;;
73264;SDS011;61493;51.008;14.088;2023-04-25T14:08:08;13.02;;;5.32;;
73264;SDS011;61493;51.008;14.088;2023-04-25T14:10:33;13.32;;;4.28;;
73264;SDS011;61493;51.008;14.088;2023-04-25T14:12:59;10.93;;;3.50;;
73264;SDS011;61493;51.008;14.088;2023-04-25T14:15:25;10.82;;;4.35;;
73264;SDS011;61493;51.008;14.088;2023-04-25T14:17:50;8.68;;;3.35;;
73264;SDS011;61493;51.008;14.088;2023-04-25T14:20:15;6.53;;;3.20;;
73264;SDS011;61493;51.008;14.088;2023-04-25T14:22:45;8.98;;;3.22;;
73264;SDS011;61493;51.008;14.088;2023-04-25T14:25:10;8.95;;;4.72;;
73264;SDS011;61493;51.008;14.088;2023-04-25T14:27:35;10.32;;;3.50;;
73264;SDS011;61493;51.008;14.088;2023-04-25T14:30:00;8.15;;;3.65;;